Time;durP1;ratioP1;P1;durP2;ratioP2;P2;SDS_P1;SDS_P2;PMS_P1;PMS_P2;Temp;Humidity;BMP_temperature;BMP_pressure;BME280_temperature;BME280_humidity;BME280_pressure;Samples;Min_cycle;Max_cycle;Signal;HPM_P1;HPM_P2
2023/05/16 00:02:04;;;;;;;19.92;10.13;;;;;;;;;;5064089;28;20059;-62
2023/05/16 00:04:31;;;;;;;17.13;11.38;;;;;;;;;;5064573;28;20028;-59
2023/05/16 00:06:57;;;;;;;17.95;11.77;;;;;;;;;;5064516;28;20084;-59
2023/05/16 00:09:22;;;;;;;17.60;11.93;;;;;;;;;;5064283;28;20033;-62
2023/05/16 00:11:47;;;;;;;21.67;12.88;;;;;;;;;;5011622;28;20041;-56
2023/05/16 00:14:13;;;;;;;19.05;12.18;;;;;;;;;;5064207;28;20039;-59
2023/05/16 00:16:40;;;;;;;18.13;11.80;;;;;;;;;;5064608;28;20021;-61
2023/05/16 00:19:06;;;;;;;17.35;11.82;;;;;;;;;;5065201;28;20020;-57
2023/05/16 00:21:32;;;;;;;18.02;11.45;;;;;;;;;;5068089;28;20174;-62
2023/05/16 00:23:57;;;;;;;15.77;10.43;;;;;;;;;;5067998;28;20720;-62
2023/05/16 00:26:22;;;;;;;16.83;10.18;;;;;;;;;;5067869;28;20103;-58
2023/05/16 00:28:48;;;;;;;16.60;10.83;;;;;;;;;;5067954;28;20051;-55
2023/05/16 00:31:13;;;;;;;16.63;10.23;;;;;;;;;;5067563;28;20261;-62
2023/05/16 00:33:38;;;;;;;15.38;9.32;;;;;;;;;;5048821;28;20025;-62
2023/05/16 00:36:03;;;;;;;19.67;9.40;;;;;;;;;;5067953;28;20456;-61
2023/05/16 00:38:29;;;;;;;14.30;9.85;;;;;;;;;;5067972;28;20025;-62
2023/05/16 00:40:54;;;;;;;16.40;10.45;;;;;;;;;;5067528;28;20396;-62
2023/05/16 00:43:19;;;;;;;15.68;9.88;;;;;;;;;;5067527;28;20064;-58
2023/05/16 00:45:45;;;;;;;14.40;9.57;;;;;;;;;;5067662;28;20042;-61
2023/05/16 00:48:11;;;;;;;14.02;8.95;;;;;;;;;;5067627;28;20516;-62
2023/05/16 00:50:36;;;;;;;13.07;8.60;;;;;;;;;;5067896;28;20074;-61
2023/05/16 00:53:02;;;;;;;15.32;10.15;;;;;;;;;;5067420;28;20523;-59
2023/05/16 00:55:28;;;;;;;16.70;8.25;;;;;;;;;;5066890;28;20085;-60
2023/05/16 00:57:53;;;;;;;13.60;8.70;;;;;;;;;;5014495;28;20028;-61
2023/05/16 01:00:18;;;;;;;12.98;8.27;;;;;;;;;;5067066;28;20483;-58
2023/05/16 01:02:44;;;;;;;14.02;7.95;;;;;;;;;;5067228;28;20045;-61
2023/05/16 01:05:10;;;;;;;12.70;8.32;;;;;;;;;;5067355;28;20039;-59
2023/05/16 01:07:35;;;;;;;15.77;8.20;;;;;;;;;;5067098;28;20415;-62
2023/05/16 01:10:01;;;;;;;13.30;8.18;;;;;;;;;;5067065;28;20428;-58
2023/05/16 01:12:38;;;;;;;13.10;7.25;;;;;;;;;;5067661;28;20415;-61
2023/05/16 01:15:03;;;;;;;14.20;8.38;;;;;;;;;;5066657;28;20430;-60
2023/05/16 01:17:35;;;;;;;12.43;8.50;;;;;;;;;;5066613;28;20025;-60
2023/05/16 01:20:21;;;;;;;13.82;8.50;;;;;;;;;;5066901;28;20017;-55
2023/05/16 01:22:50;;;;;;;14.40;8.93;;;;;;;;;;4965568;28;20039;-60
2023/05/16 01:25:34;;;;;;;13.43;8.82;;;;;;;;;;4965390;28;20034;-60
2023/05/16 01:28:00;;;;;;;16.50;10.52;;;;;;;;;;4964946;28;20427;-59
2023/05/16 01:30:26;;;;;;;18.23;10.70;;;;;;;;;;4965264;28;20077;-60
2023/05/16 01:32:51;;;;;;;17.20;11.25;;;;;;;;;;4965467;28;20074;-62
2023/05/16 01:35:17;;;;;;;19.90;11.38;;;;;;;;;;4965404;28;20035;-60
2023/05/16 01:37:54;;;;;;;19.30;10.85;;;;;;;;;;4965296;28;20138;-56
2023/05/16 01:40:28;;;;;;;19.42;11.77;;;;;;;;;;4965233;28;20141;-57
2023/05/16 01:42:55;;;;;;;24.35;11.85;;;;;;;;;;4965457;28;20050;-61
2023/05/16 01:45:26;;;;;;;20.27;12.13;;;;;;;;;;4965059;28;20322;-61
2023/05/16 01:47:54;;;;;;;20.75;12.93;;;;;;;;;;4964840;28;20510;-61
2023/05/16 01:50:21;;;;;;;20.33;12.35;;;;;;;;;;4965273;28;20030;-62
2023/05/16 01:52:55;;;;;;;22.30;12.20;;;;;;;;;;4965104;28;20471;-62
2023/05/16 01:55:28;;;;;;;21.55;12.65;;;;;;;;;;4964515;28;20091;-61
2023/05/16 01:57:54;;;;;;;20.13;12.35;;;;;;;;;;4964747;28;20034;-59
2023/05/16 02:00:20;;;;;;;18.25;12.57;;;;;;;;;;5033399;28;20521;-61
2023/05/16 02:02:45;;;;;;;19.52;11.70;;;;;;;;;;5066110;28;20138;-62
2023/05/16 02:05:10;;;;;;;19.77;12.50;;;;;;;;;;5066220;28;20021;-60
2023/05/16 02:07:36;;;;;;;19.45;11.02;;;;;;;;;;5065686;28;20046;-59
2023/05/16 02:10:01;;;;;;;16.60;11.05;;;;;;;;;;5066148;28;20361;-62
2023/05/16 02:12:26;;;;;;;113.90;73.80;;;;;;;;;;5065995;28;20021;-60
2023/05/16 02:14:51;;;;;;;19.08;11.90;;;;;;;;;;5066050;28;20098;-55
2023/05/16 02:17:17;;;;;;;19.30;12.17;;;;;;;;;;5065712;28;20024;-61
2023/05/16 02:19:42;;;;;;;21.65;12.00;;;;;;;;;;5066405;28;20328;-62
2023/05/16 02:22:07;;;;;;;18.58;11.93;;;;;;;;;;5065765;28;20024;-62
2023/05/16 02:24:32;;;;;;;19.20;12.45;;;;;;;;;;5065615;28;20029;-58
2023/05/16 02:26:58;;;;;;;16.83;11.05;;;;;;;;;;5065708;28;20031;-61
2023/05/16 02:29:23;;;;;;;15.52;9.75;;;;;;;;;;5065800;28;20028;-62
2023/05/16 02:31:48;;;;;;;16.30;10.38;;;;;;;;;;5065673;28;20396;-61
2023/05/16 02:34:14;;;;;;;15.88;10.52;;;;;;;;;;5065625;28;20355;-59
2023/05/16 02:36:39;;;;;;;20.52;11.20;;;;;;;;;;5065394;28;20048;-57
2023/05/16 02:39:06;;;;;;;17.33;10.15;;;;;;;;;;5064938;28;20032;-61
2023/05/16 02:41:32;;;;;;;15.70;10.32;;;;;;;;;;5065000;28;20459;-59
2023/05/16 02:43:57;;;;;;;18.23;11.27;;;;;;;;;;5065121;28;20035;-61
2023/05/16 02:46:26;;;;;;;19.67;10.77;;;;;;;;;;5065308;28;20052;-60
2023/05/16 02:48:52;;;;;;;15.90;9.95;;;;;;;;;;5065074;28;20032;-57
2023/05/16 02:51:19;;;;;;;14.82;9.73;;;;;;;;;;5065307;28;20083;-63
2023/05/16 02:53:44;;;;;;;17.88;10.90;;;;;;;;;;5065518;28;20043;-63
2023/05/16 02:56:09;;;;;;;15.48;10.32;;;;;;;;;;5064823;28;20017;-62
2023/05/16 02:58:35;;;;;;;16.80;10.88;;;;;;;;;;5065250;28;20107;-59
2023/05/16 03:01:00;;;;;;;18.58;10.75;;;;;;;;;;5064611;28;20025;-62
2023/05/16 03:03:26;;;;;;;18.35;11.30;;;;;;;;;;5065380;28;20358;-61
2023/05/16 03:05:51;;;;;;;17.88;11.80;;;;;;;;;;5064944;28;20020;-62
2023/05/16 03:08:16;;;;;;;20.30;11.23;;;;;;;;;;5064790;28;20024;-58
2023/05/16 03:10:42;;;;;;;14.48;9.90;;;;;;;;;;5064902;28;20043;-59
2023/05/16 03:13:07;;;;;;;19.23;11.00;;;;;;;;;;5064753;28;20075;-60
2023/05/16 03:15:32;;;;;;;18.55;11.63;;;;;;;;;;5064956;28;20023;-62
2023/05/16 03:17:57;;;;;;;21.47;11.93;;;;;;;;;;5046877;28;20024;-61
2023/05/16 03:20:23;;;;;;;17.92;10.55;;;;;;;;;;5064968;28;20237;-60
2023/05/16 03:22:48;;;;;;;18.40;10.40;;;;;;;;;;5064497;28;20453;-62
2023/05/16 03:25:13;;;;;;;15.77;10.77;;;;;;;;;;5064979;28;20100;-58
2023/05/16 03:27:38;;;;;;;17.80;12.00;;;;;;;;;;5064701;28;20046;-58
2023/05/16 03:30:05;;;;;;;21.25;12.18;;;;;;;;;;5064541;28;20025;-60
2023/05/16 03:32:30;;;;;;;22.77;12.07;;;;;;;;;;5064332;28;20024;-60
2023/05/16 03:34:55;;;;;;;19.20;11.18;;;;;;;;;;5064516;28;20383;-61
2023/05/16 03:37:21;;;;;;;20.92;12.07;;;;;;;;;;5064615;28;20031;-59
2023/05/16 03:39:46;;;;;;;16.20;11.40;;;;;;;;;;5064333;28;20046;-61
2023/05/16 03:42:11;;;;;;;16.52;10.55;;;;;;;;;;5064402;28;20089;-58
2023/05/16 03:44:37;;;;;;;15.73;11.27;;;;;;;;;;5064858;28;20116;-59
2023/05/16 03:47:02;;;;;;;186.50;100.30;;;;;;;;;;5021635;28;20032;-61
2023/05/16 03:49:28;;;;;;;15.30;10.23;;;;;;;;;;5021343;28;20037;-57
2023/05/16 03:51:53;;;;;;;11.95;8.00;;;;;;;;;;5021787;28;20041;-62
2023/05/16 03:54:18;;;;;;;13.32;9.25;;;;;;;;;;4973761;28;20503;-55
2023/05/16 03:56:43;;;;;;;18.38;9.60;;;;;;;;;;5025285;28;20021;-57
2023/05/16 03:59:09;;;;;;;13.65;8.57;;;;;;;;;;5025871;28;20503;-61
2023/05/16 04:01:34;;;;;;;14.45;9.05;;;;;;;;;;5025658;28;20057;-61
2023/05/16 04:03:59;;;;;;;14.90;9.05;;;;;;;;;;5025618;28;20488;-61
2023/05/16 04:06:25;;;;;;;81.93;74.20;;;;;;;;;;5025816;28;20641;-60
2023/05/16 04:08:50;;;;;;;17.33;15.55;;;;;;;;;;5025782;28;20061;-62
2023/05/16 04:11:15;;;;;;;115.10;105.50;;;;;;;;;;5025351;28;20053;-60
2023/05/16 04:13:41;;;;;;;155.20;143.00;;;;;;;;;;5025806;28;20068;-58
2023/05/16 04:16:06;;;;;;;14.48;9.13;;;;;;;;;;5008732;28;20170;-60
2023/05/16 04:18:31;;;;;;;20.63;8.73;;;;;;;;;;5054892;28;20025;-60
2023/05/16 04:20:57;;;;;;;14.98;8.48;;;;;;;;;;5068248;28;20588;-59
2023/05/16 04:23:22;;;;;;;16.10;8.97;;;;;;;;;;5068001;28;20375;-61
2023/05/16 04:25:47;;;;;;;15.30;8.43;;;;;;;;;;5015467;28;20249;-58
2023/05/16 04:28:13;;;;;;;16.40;9.25;;;;;;;;;;5067683;28;20547;-58
2023/05/16 04:30:38;;;;;;;14.23;8.88;;;;;;;;;;5068182;28;20020;-61
2023/05/16 04:33:03;;;;;;;14.25;9.18;;;;;;;;;;5068236;28;20043;-62
2023/05/16 04:35:28;;;;;;;13.95;8.85;;;;;;;;;;5067811;28;20031;-61
2023/05/16 04:37:54;;;;;;;14.25;9.25;;;;;;;;;;5067779;28;20115;-55
2023/05/16 04:40:20;;;;;;;12.45;8.73;;;;;;;;;;5067637;28;20045;-59
2023/05/16 04:42:45;;;;;;;16.13;8.93;;;;;;;;;;5067391;28;20112;-62
2023/05/16 04:45:12;;;;;;;17.30;9.10;;;;;;;;;;5067622;28;20021;-56
2023/05/16 04:47:38;;;;;;;14.90;8.48;;;;;;;;;;5067086;28;20121;-59
2023/05/16 04:50:03;;;;;;;17.23;9.43;;;;;;;;;;5068098;28;20095;-62
2023/05/16 04:52:29;;;;;;;14.80;8.80;;;;;;;;;;5067304;28;20020;-60
2023/05/16 04:54:54;;;;;;;14.93;8.88;;;;;;;;;;5049377;28;20044;-62
2023/05/16 04:57:19;;;;;;;12.00;8.40;;;;;;;;;;5014645;28;20044;-61
2023/05/16 04:59:45;;;;;;;12.35;7.53;;;;;;;;;;5066611;28;20027;-58
2023/05/16 05:02:10;;;;;;;16.42;8.63;;;;;;;;;;5067024;28;20671;-61
2023/05/16 05:04:35;;;;;;;18.17;8.70;;;;;;;;;;5066708;28;20032;-59
2023/05/16 05:07:01;;;;;;;12.00;6.85;;;;;;;;;;5067116;28;20020;-57
2023/05/16 05:09:26;;;;;;;15.35;9.73;;;;;;;;;;5067398;28;20025;-59
2023/05/16 05:11:51;;;;;;;13.27;8.18;;;;;;;;;;5067382;28;20012;-61
2023/05/16 05:14:16;;;;;;;18.60;9.25;;;;;;;;;;5049010;28;20384;-61
2023/05/16 05:16:42;;;;;;;18.27;8.77;;;;;;;;;;5066950;28;20458;-60
2023/05/16 05:19:07;;;;;;;22.05;10.80;;;;;;;;;;5066872;28;20368;-61
2023/05/16 05:21:33;;;;;;;23.17;12.45;;;;;;;;;;5067195;28;20024;-60
2023/05/16 05:23:58;;;;;;;22.00;11.57;;;;;;;;;;5067018;28;20502;-61
2023/05/16 05:26:24;;;;;;;49.60;45.67;;;;;;;;;;5067220;28;20027;-60
2023/05/16 05:28:50;;;;;;;44.42;40.75;;;;;;;;;;5066888;28;20242;-60
2023/05/16 05:31:15;;;;;;;111.43;103.72;;;;;;;;;;5066263;28;20020;-59
2023/05/16 05:33:41;;;;;;;17.10;10.40;;;;;;;;;;5066821;28;20082;-58
2023/05/16 05:36:06;;;;;;;42.83;39.55;;;;;;;;;;5030841;28;20107;-57
2023/05/16 05:38:32;;;;;;;69.93;65.00;;;;;;;;;;5060459;28;20464;-58
2023/05/16 05:40:57;;;;;;;88.75;82.35;;;;;;;;;;5051057;28;20048;-61
2023/05/16 05:43:23;;;;;;;46.28;42.67;;;;;;;;;;5050146;28;20017;-59
2023/05/16 05:45:48;;;;;;;17.75;12.50;;;;;;;;;;5053155;28;20082;-60
2023/05/16 05:48:13;;;;;;;34.75;31.45;;;;;;;;;;5011107;28;20465;-62
2023/05/16 05:50:39;;;;;;;55.67;51.15;;;;;;;;;;5050187;28;20036;-62
2023/05/16 05:53:04;;;;;;;91.18;84.32;;;;;;;;;;5058460;28;20037;-62
2023/05/16 05:55:29;;;;;;;82.95;76.78;;;;;;;;;;5046113;28;20025;-60
2023/05/16 05:57:55;;;;;;;67.35;62.15;;;;;;;;;;5052997;28;20456;-60
2023/05/16 06:00:21;;;;;;;66.13;61.08;;;;;;;;;;5040815;28;20028;-59
2023/05/16 06:02:47;;;;;;;52.13;48.03;;;;;;;;;;5064565;28;20045;-60
2023/05/16 06:05:12;;;;;;;48.95;44.83;;;;;;;;;;5054418;28;20020;-60
2023/05/16 06:07:37;;;;;;;60.58;55.40;;;;;;;;;;5051513;28;20402;-59
2023/05/16 06:10:04;;;;;;;47.90;43.53;;;;;;;;;;5049374;28;20037;-61
2023/05/16 06:12:29;;;;;;;56.45;51.65;;;;;;;;;;5047721;28;20709;-62
2023/05/16 06:14:55;;;;;;;47.35;43.08;;;;;;;;;;5047674;28;20020;-55
2023/05/16 06:17:20;;;;;;;57.72;52.47;;;;;;;;;;5052289;28;20032;-59
2023/05/16 06:19:46;;;;;;;57.97;53.17;;;;;;;;;;5053833;28;20181;-58
2023/05/16 06:22:11;;;;;;;44.30;40.25;;;;;;;;;;5051030;28;20029;-61
2023/05/16 06:24:36;;;;;;;30.60;27.52;;;;;;;;;;5010181;28;20479;-61
2023/05/16 06:27:01;;;;;;;29.97;23.93;;;;;;;;;;5055252;28;20348;-56
2023/05/16 06:29:27;;;;;;;32.90;29.23;;;;;;;;;;5029007;28;20851;-57
2023/05/16 06:31:52;;;;;;;19.80;14.63;;;;;;;;;;5057153;28;20027;-59
2023/05/16 06:34:17;;;;;;;38.58;34.97;;;;;;;;;;5057000;28;20103;-54
2023/05/16 06:36:43;;;;;;;22.95;20.08;;;;;;;;;;5055519;28;20469;-52
2023/05/16 06:39:08;;;;;;;59.22;41.95;;;;;;;;;;5051021;28;20037;-58
2023/05/16 06:41:34;;;;;;;13.88;6.90;;;;;;;;;;5044907;28;20032;-57
2023/05/16 06:43:59;;;;;;;13.57;7.70;;;;;;;;;;5063718;28;20494;-56
2023/05/16 06:46:25;;;;;;;10.68;6.88;;;;;;;;;;5050610;28;20254;-59
2023/05/16 06:48:50;;;;;;;13.60;7.65;;;;;;;;;;4997267;28;20494;-58
2023/05/16 06:51:15;;;;;;;11.60;7.07;;;;;;;;;;5017829;28;20074;-58
2023/05/16 06:53:41;;;;;;;11.18;6.85;;;;;;;;;;5043179;28;20024;-56
2023/05/16 06:56:06;;;;;;;13.77;7.10;;;;;;;;;;5052969;28;20391;-60
2023/05/16 06:58:31;;;;;;;10.40;6.13;;;;;;;;;;5055486;28;20024;-59
2023/05/16 07:00:57;;;;;;;11.93;6.22;;;;;;;;;;5040871;28;20024;-57
2023/05/16 07:03:22;;;;;;;11.00;6.28;;;;;;;;;;5047279;28;20135;-59
2023/05/16 07:05:51;;;;;;;7.60;5.63;;;;;;;;;;5047740;28;20044;-58
2023/05/16 07:08:16;;;;;;;7.05;5.25;;;;;;;;;;5049972;28;20102;-55
2023/05/16 07:10:42;;;;;;;6.63;5.25;;;;;;;;;;5048352;28;20056;-59
2023/05/16 07:13:07;;;;;;;7.27;5.23;;;;;;;;;;5047550;28;20730;-59
2023/05/16 07:15:32;;;;;;;8.02;5.93;;;;;;;;;;5047188;28;20269;-57
2023/05/16 07:17:58;;;;;;;9.05;5.88;;;;;;;;;;5042694;28;20052;-57
2023/05/16 07:20:23;;;;;;;9.55;6.65;;;;;;;;;;5050558;28;20032;-59
2023/05/16 07:22:48;;;;;;;10.13;6.40;;;;;;;;;;5000551;28;20033;-60
2023/05/16 07:25:14;;;;;;;9.85;6.20;;;;;;;;;;5042286;28;20021;-60
2023/05/16 07:27:40;;;;;;;13.23;7.10;;;;;;;;;;5042480;28;20028;-60
2023/05/16 07:30:08;;;;;;;10.98;7.10;;;;;;;;;;5040850;28;20025;-58
2023/05/16 07:32:33;;;;;;;9.55;6.43;;;;;;;;;;5046754;28;20017;-58
2023/05/16 07:34:58;;;;;;;13.82;8.18;;;;;;;;;;5040707;28;20029;-58
2023/05/16 07:37:24;;;;;;;14.10;7.87;;;;;;;;;;5051518;28;20020;-56
2023/05/16 07:39:49;;;;;;;12.00;7.03;;;;;;;;;;5049655;28;20811;-60
2023/05/16 07:42:14;;;;;;;12.02;8.07;;;;;;;;;;5046287;28;20055;-60
2023/05/16 07:44:39;;;;;;;13.32;8.55;;;;;;;;;;5048898;28;20691;-60
2023/05/16 07:47:05;;;;;;;17.58;8.73;;;;;;;;;;5027949;28;20347;-57
2023/05/16 07:49:30;;;;;;;13.27;7.60;;;;;;;;;;5015722;28;20048;-60
2023/05/16 07:51:56;;;;;;;11.98;7.72;;;;;;;;;;5055357;28;20032;-58
2023/05/16 07:54:21;;;;;;;15.55;8.73;;;;;;;;;;5055138;28;20051;-58
2023/05/16 07:56:46;;;;;;;16.65;9.65;;;;;;;;;;5045983;28;20033;-60
2023/05/16 07:59:11;;;;;;;14.15;9.00;;;;;;;;;;5047702;28;20382;-59
2023/05/16 08:01:37;;;;;;;12.93;7.75;;;;;;;;;;5045040;28;20100;-57
2023/05/16 08:04:02;;;;;;;16.90;8.88;;;;;;;;;;5058256;28;20053;-58
2023/05/16 08:06:28;;;;;;;15.30;8.13;;;;;;;;;;5062298;28;20032;-60
2023/05/16 08:08:53;;;;;;;14.15;8.75;;;;;;;;;;5050424;28;20052;-59
2023/05/16 08:11:21;;;;;;;15.20;9.15;;;;;;;;;;5048100;28;20448;-60
2023/05/16 08:13:46;;;;;;;13.95;8.80;;;;;;;;;;5047651;28;20286;-59
2023/05/16 08:16:12;;;;;;;15.02;9.45;;;;;;;;;;5044625;28;20289;-60
2023/05/16 08:18:37;;;;;;;19.97;9.27;;;;;;;;;;5029250;28;20111;-59
2023/05/16 08:21:03;;;;;;;15.07;10.32;;;;;;;;;;5047059;28;20246;-58
2023/05/16 08:23:28;;;;;;;19.33;10.45;;;;;;;;;;5043559;28;20036;-59
2023/05/16 08:25:53;;;;;;;17.83;10.83;;;;;;;;;;5048458;28;20102;-60
2023/05/16 08:28:19;;;;;;;14.73;10.70;;;;;;;;;;5051805;28;21054;-58
2023/05/16 08:30:44;;;;;;;15.73;10.60;;;;;;;;;;5048184;28;20323;-60
2023/05/16 08:33:09;;;;;;;17.58;10.38;;;;;;;;;;5019285;28;20261;-59
2023/05/16 08:35:34;;;;;;;17.07;10.57;;;;;;;;;;5049179;28;20472;-60
2023/05/16 08:38:01;;;;;;;17.20;11.38;;;;;;;;;;5053676;28;20261;-59
2023/05/16 08:40:27;;;;;;;22.38;11.38;;;;;;;;;;5049985;28;20023;-57
2023/05/16 08:42:53;;;;;;;52.00;29.05;;;;;;;;;;5053361;28;20379;-60
2023/05/16 08:45:18;;;;;;;16.77;10.07;;;;;;;;;;5057196;28;20753;-59
2023/05/16 08:47:44;;;;;;;18.50;10.30;;;;;;;;;;5051059;28;20025;-57
2023/05/16 08:50:10;;;;;;;12.95;9.38;;;;;;;;;;5051098;28;20027;-59
2023/05/16 08:52:36;;;;;;;17.23;10.50;;;;;;;;;;5047643;28;20020;-59
2023/05/16 08:55:06;;;;;;;13.70;9.63;;;;;;;;;;5050521;28;20471;-58
2023/05/16 08:57:35;;;;;;;50.67;37.33;;;;;;;;;;5049816;28;20025;-55
2023/05/16 09:00:00;;;;;;;17.88;9.95;;;;;;;;;;5046636;28;20033;-58
2023/05/16 09:02:29;;;;;;;15.90;9.95;;;;;;;;;;5052628;28;20066;-59
2023/05/16 09:04:56;;;;;;;15.98;10.05;;;;;;;;;;5052181;28;20075;-59
2023/05/16 09:07:21;;;;;;;16.52;10.55;;;;;;;;;;5054870;28;20029;-60
2023/05/16 09:09:46;;;;;;;14.48;8.88;;;;;;;;;;5014091;28;20037;-59
2023/05/16 09:12:12;;;;;;;15.50;8.75;;;;;;;;;;5066843;28;20099;-59
2023/05/16 09:14:37;;;;;;;12.45;8.63;;;;;;;;;;5057481;28;20020;-59
2023/05/16 09:17:05;;;;;;;15.15;8.85;;;;;;;;;;5066813;28;20098;-59
2023/05/16 09:19:40;;;;;;;18.00;9.35;;;;;;;;;;5030771;28;20032;-57
2023/05/16 09:22:08;;;;;;;19.08;8.73;;;;;;;;;;5065102;28;20032;-58
2023/05/16 09:24:36;;;;;;;18.70;9.27;;;;;;;;;;5052215;28;20087;-58
2023/05/16 09:27:11;;;;;;;17.15;10.18;;;;;;;;;;5046297;28;20033;-60
2023/05/16 09:29:40;;;;;;;16.55;8.18;;;;;;;;;;5047085;28;20035;-56
2023/05/16 09:32:09;;;;;;;15.82;8.38;;;;;;;;;;5048100;28;20024;-60
2023/05/16 09:34:35;;;;;;;;;;;;;;;;;;5058302;28;20048;-59
2023/05/16 09:37:00;;;;;;;18.33;8.70;;;;;;;;;;5053508;28;19908;-57
2023/05/16 09:39:26;;;;;;;13.85;8.68;;;;;;;;;;5051987;28;20061;-59
2023/05/16 09:41:51;;;;;;;15.30;8.95;;;;;;;;;;5053726;28;20021;-58
2023/05/16 09:44:17;;;;;;;69.20;61.17;;;;;;;;;;5060463;28;20272;-59
2023/05/16 09:46:42;;;;;;;116.25;106.10;;;;;;;;;;5051457;28;20036;-58
2023/05/16 09:49:11;;;;;;;15.48;8.30;;;;;;;;;;5056959;28;20055;-58
2023/05/16 09:51:38;;;;;;;11.77;8.50;;;;;;;;;;5035624;28;20020;-60
2023/05/16 09:54:06;;;;;;;15.57;8.75;;;;;;;;;;5054878;28;20029;-57
2023/05/16 09:56:31;;;;;;;14.68;8.00;;;;;;;;;;5055556;28;21209;-57
2023/05/16 09:58:56;;;;;;;18.13;9.27;;;;;;;;;;5057558;28;20060;-59
2023/05/16 10:01:22;;;;;;;18.50;8.80;;;;;;;;;;5047349;28;20765;-58
2023/05/16 10:03:47;;;;;;;24.38;9.00;;;;;;;;;;5045902;28;20297;-59
2023/05/16 10:06:13;;;;;;;13.35;8.77;;;;;;;;;;5046738;28;20021;-56
2023/05/16 10:08:40;;;;;;;19.58;8.77;;;;;;;;;;5046320;28;20035;-57
2023/05/16 10:11:06;;;;;;;19.83;8.75;;;;;;;;;;5046571;28;20439;-59
2023/05/16 10:13:34;;;;;;;13.05;7.20;;;;;;;;;;5046318;28;20021;-58
2023/05/16 10:16:04;;;;;;;39.28;22.60;;;;;;;;;;5049453;28;20526;-59
2023/05/16 10:18:30;;;;;;;12.13;8.40;;;;;;;;;;5066242;28;20074;-60
2023/05/16 10:20:56;;;;;;;18.35;8.40;;;;;;;;;;5049176;28;20028;-61
2023/05/16 10:23:24;;;;;;;21.30;9.45;;;;;;;;;;5046886;28;20315;-58
2023/05/16 10:25:49;;;;;;;17.52;8.50;;;;;;;;;;5045447;28;20396;-58
2023/05/16 10:28:15;;;;;;;18.17;7.95;;;;;;;;;;5052823;28;20040;-58
2023/05/16 10:30:43;;;;;;;15.88;8.60;;;;;;;;;;5053718;28;20078;-57
2023/05/16 10:33:09;;;;;;;17.65;8.85;;;;;;;;;;5057119;28;20029;-58
2023/05/16 10:35:34;;;;;;;20.00;7.75;;;;;;;;;;5042752;28;20029;-61
2023/05/16 10:38:00;;;;;;;17.35;8.57;;;;;;;;;;5050419;28;20037;-61
2023/05/16 10:40:25;;;;;;;14.02;7.75;;;;;;;;;;5048339;28;20049;-63
2023/05/16 10:42:57;;;;;;;15.50;8.30;;;;;;;;;;5050644;28;20422;-59
2023/05/16 10:45:23;;;;;;;23.45;8.35;;;;;;;;;;5053414;28;20036;-61
2023/05/16 10:47:52;;;;;;;14.07;7.60;;;;;;;;;;5052702;28;20025;-61
2023/05/16 10:50:36;;;;;;;20.13;7.93;;;;;;;;;;5021720;28;20124;-58
2023/05/16 10:53:16;;;;;;;18.27;7.82;;;;;;;;;;5049457;28;20044;-58
2023/05/16 10:55:47;;;;;;;16.00;7.88;;;;;;;;;;5046929;28;20066;-60
2023/05/16 10:58:17;;;;;;;52.10;46.53;;;;;;;;;;5055244;28;20162;-59
2023/05/16 11:00:42;;;;;;;21.48;8.05;;;;;;;;;;5056700;28;20028;-61
2023/05/16 11:03:18;;;;;;;81.93;65.43;;;;;;;;;;5049441;28;20033;-60
2023/05/16 11:05:50;;;;;;;17.02;6.32;;;;;;;;;;5046958;28;20173;-60
2023/05/16 11:08:15;;;;;;;13.38;7.38;;;;;;;;;;5048381;28;20103;-62
2023/05/16 11:10:40;;;;;;;14.77;7.00;;;;;;;;;;5048461;28;20101;-54
2023/05/16 11:13:06;;;;;;;17.43;7.33;;;;;;;;;;5048731;28;20630;-54
2023/05/16 11:15:33;;;;;;;16.40;6.60;;;;;;;;;;5050655;28;20348;-61
2023/05/16 11:18:05;;;;;;;13.77;7.07;;;;;;;;;;5053185;28;20152;-61
2023/05/16 11:20:33;;;;;;;16.40;6.53;;;;;;;;;;5047403;28;20120;-58
2023/05/16 11:23:17;;;;;;;16.20;7.05;;;;;;;;;;5042680;28;20547;-58
2023/05/16 11:25:44;;;;;;;12.38;6.97;;;;;;;;;;5049868;28;20025;-60
2023/05/16 11:28:10;;;;;;;15.15;7.38;;;;;;;;;;5047734;28;20024;-60
2023/05/16 11:30:36;;;;;;;17.35;7.43;;;;;;;;;;5051887;28;20021;-60
2023/05/16 11:33:01;;;;;;;13.15;6.57;;;;;;;;;;5051138;28;20029;-58
2023/05/16 11:35:27;;;;;;;19.15;8.23;;;;;;;;;;5044758;28;20439;-56
2023/05/16 11:37:53;;;;;;;15.95;6.45;;;;;;;;;;5044857;28;20059;-57
2023/05/16 11:40:18;;;;;;;21.45;6.70;;;;;;;;;;5044549;28;20052;-61
2023/05/16 11:42:44;;;;;;;19.33;6.53;;;;;;;;;;5048665;28;20025;-57
2023/05/16 11:45:11;;;;;;;15.23;6.82;;;;;;;;;;5060353;28;20298;-58
2023/05/16 11:47:37;;;;;;;18.95;7.55;;;;;;;;;;5059018;28;20504;-58
2023/05/16 11:50:16;;;;;;;16.23;7.05;;;;;;;;;;5049563;28;20083;-59
2023/05/16 11:52:42;;;;;;;16.60;8.38;;;;;;;;;;5046893;28;20035;-58
2023/05/16 11:55:10;;;;;;;19.08;7.30;;;;;;;;;;5050759;28;20062;-57
2023/05/16 11:57:35;;;;;;;18.08;7.63;;;;;;;;;;5042638;28;20448;-60
2023/05/16 12:00:18;;;;;;;15.07;7.25;;;;;;;;;;5046718;28;20033;-58
2023/05/16 12:02:43;;;;;;;13.80;7.40;;;;;;;;;;5046394;28;20487;-62
2023/05/16 12:05:09;;;;;;;18.83;7.78;;;;;;;;;;5047817;28;20056;-61
2023/05/16 12:07:35;;;;;;;19.98;8.23;;;;;;;;;;5046158;28;20508;-57
2023/05/16 12:10:04;;;;;;;14.20;7.45;;;;;;;;;;5042684;28;20493;-62
2023/05/16 12:12:30;;;;;;;20.65;7.75;;;;;;;;;;5042252;28;20033;-57
2023/05/16 12:14:55;;;;;;;23.90;8.02;;;;;;;;;;5052378;28;20036;-61
2023/05/16 12:17:21;;;;;;;33.55;11.38;;;;;;;;;;5050260;28;20074;-61
2023/05/16 12:19:46;;;;;;;22.75;8.52;;;;;;;;;;5047048;28;20029;-60
2023/05/16 12:22:19;;;;;;;18.65;7.38;;;;;;;;;;5058915;28;20047;-57
2023/05/16 12:24:44;;;;;;;19.25;7.65;;;;;;;;;;5053016;28;20028;-61
2023/05/16 12:27:10;;;;;;;19.13;8.43;;;;;;;;;;5055706;28;20384;-61
2023/05/16 12:29:35;;;;;;;17.85;7.65;;;;;;;;;;5048872;28;20120;-59
2023/05/16 12:32:00;;;;;;;15.32;8.38;;;;;;;;;;5011422;28;20033;-63
2023/05/16 12:34:27;;;;;;;20.77;8.52;;;;;;;;;;5054382;28;20313;-62
2023/05/16 12:36:53;;;;;;;18.90;7.57;;;;;;;;;;5048641;28;20036;-59
2023/05/16 12:39:19;;;;;;;19.33;8.60;;;;;;;;;;5054342;28;20108;-58
2023/05/16 12:41:44;;;;;;;22.02;9.57;;;;;;;;;;5047118;28;20400;-59
2023/05/16 12:44:11;;;;;;;20.65;8.35;;;;;;;;;;5046569;28;20480;-62
2023/05/16 12:46:39;;;;;;;19.98;8.60;;;;;;;;;;5046063;28;20094;-60
2023/05/16 12:49:05;;;;;;;23.02;8.73;;;;;;;;;;5051127;28;20044;-59
2023/05/16 12:51:31;;;;;;;17.38;7.80;;;;;;;;;;5049469;28;20029;-62
2023/05/16 12:53:56;;;;;;;16.33;8.50;;;;;;;;;;5051630;28;20032;-60
2023/05/16 12:56:22;;;;;;;18.80;9.30;;;;;;;;;;5049877;28;20636;-60
2023/05/16 12:58:50;;;;;;;19.58;9.02;;;;;;;;;;5058410;28;20025;-58
2023/05/16 13:01:15;;;;;;;14.95;7.45;;;;;;;;;;5052205;28;20033;-59
2023/05/16 13:03:40;;;;;;;21.53;8.30;;;;;;;;;;5057501;28;20075;-60
2023/05/16 13:06:06;;;;;;;23.02;9.63;;;;;;;;;;5052356;28;20303;-59
2023/05/16 13:08:31;;;;;;;17.17;8.43;;;;;;;;;;5049473;28;20635;-60
2023/05/16 13:10:57;;;;;;;20.17;9.65;;;;;;;;;;5055758;28;20043;-57
2023/05/16 13:13:22;;;;;;;16.85;9.52;;;;;;;;;;5053502;28;20021;-57
2023/05/16 13:15:47;;;;;;;23.88;9.27;;;;;;;;;;5058188;28;20030;-59
2023/05/16 13:18:13;;;;;;;18.40;9.30;;;;;;;;;;5051990;28;20123;-59
2023/05/16 13:20:38;;;;;;;26.30;8.75;;;;;;;;;;5054137;28;20071;-59
2023/05/16 13:23:06;;;;;;;27.13;9.43;;;;;;;;;;5047327;28;20032;-62
2023/05/16 13:25:32;;;;;;;16.90;9.23;;;;;;;;;;5049543;28;20123;-56
2023/05/16 13:27:57;;;;;;;21.05;10.23;;;;;;;;;;5052971;28;20104;-57
2023/05/16 13:30:23;;;;;;;17.57;10.73;;;;;;;;;;5005210;28;20442;-57
2023/05/16 13:32:48;;;;;;;26.52;9.93;;;;;;;;;;5051874;28;20262;-59
2023/05/16 13:35:14;;;;;;;19.98;9.90;;;;;;;;;;5052009;28;20044;-58
2023/05/16 13:37:40;;;;;;;23.52;9.73;;;;;;;;;;5051118;28;20021;-57
2023/05/16 13:40:09;;;;;;;18.40;9.55;;;;;;;;;;5059947;28;20387;-58
2023/05/16 13:42:35;;;;;;;23.33;10.32;;;;;;;;;;5052497;28;20445;-54
2023/05/16 13:45:00;;;;;;;26.00;10.60;;;;;;;;;;5053915;28;20082;-56
2023/05/16 13:47:25;;;;;;;21.08;10.80;;;;;;;;;;5052166;28;20028;-58
2023/05/16 13:49:50;;;;;;;32.50;11.53;;;;;;;;;;5052288;28;20020;-64
2023/05/16 13:52:16;;;;;;;21.75;10.38;;;;;;;;;;5052608;28;20601;-57
2023/05/16 13:54:41;;;;;;;20.75;11.60;;;;;;;;;;5045355;28;20028;-58
2023/05/16 13:57:06;;;;;;;18.20;10.13;;;;;;;;;;5043952;28;20537;-58
2023/05/16 13:59:32;;;;;;;23.45;11.27;;;;;;;;;;5042670;28;20783;-58
2023/05/16 14:01:57;;;;;;;170.70;126.32;;;;;;;;;;5052292;28;20534;-57
2023/05/16 14:04:22;;;;;;;19.97;9.73;;;;;;;;;;5028430;28;20036;-56
2023/05/16 14:06:48;;;;;;;15.93;9.85;;;;;;;;;;5041635;28;20262;-65
2023/05/16 14:09:14;;;;;;;18.55;10.45;;;;;;;;;;5044324;28;20268;-63
2023/05/16 14:11:39;;;;;;;19.75;9.98;;;;;;;;;;5023151;28;20490;-60
2023/05/16 14:14:04;;;;;;;15.77;9.73;;;;;;;;;;5043648;28;20479;-63
2023/05/16 14:16:30;;;;;;;21.00;10.60;;;;;;;;;;5039750;28;20372;-60
2023/05/16 14:18:55;;;;;;;17.40;9.65;;;;;;;;;;5054546;28;20028;-60
2023/05/16 14:21:20;;;;;;;16.17;9.52;;;;;;;;;;5036268;28;20032;-60